createdAt,value
2023-01-22T05:01:31.417Z,7.90
2023-01-22T05:05:43.514Z,7.87
2023-01-22T05:09:56.050Z,8.30
2023-01-22T05:14:10.353Z,7.90
2023-01-22T05:18:22.691Z,7.70
2023-01-22T05:22:36.637Z,7.87
2023-01-22T05:26:48.257Z,7.00
2023-01-22T05:31:06.563Z,8.43
2023-01-22T05:35:22.949Z,8.97
2023-01-22T05:39:34.604Z,7.73
2023-01-22T05:43:48.712Z,7.70
2023-01-22T05:48:05.344Z,7.60
2023-01-22T05:52:24.772Z,6.90
2023-01-22T05:56:36.773Z,7.17
2023-01-22T06:00:48.377Z,7.60
2023-01-22T06:05:02.732Z,6.57
2023-01-22T06:09:14.453Z,6.57
2023-01-22T06:13:28.114Z,6.63
2023-01-22T06:17:43.212Z,6.30
2023-01-22T06:21:55.612Z,6.40
2023-01-22T06:26:15.987Z,7.13
2023-01-22T06:30:27.579Z,6.80
2023-01-22T06:34:39.745Z,7.70
2023-01-22T06:38:51.265Z,6.33
2023-01-22T06:43:13.444Z,6.73
2023-01-22T06:47:25.077Z,6.10
2023-01-22T06:51:36.597Z,6.10
2023-01-22T06:55:48.053Z,6.37
2023-01-22T06:59:59.678Z,7.57
2023-01-22T07:04:11.130Z,6.70
2023-01-22T07:08:22.618Z,8.07
2023-01-22T07:12:34.144Z,8.73
2023-01-22T07:16:45.629Z,8.67
2023-01-22T07:21:05.047Z,7.33
2023-01-22T07:25:16.622Z,6.20
2023-01-22T07:29:28.185Z,8.30
2023-01-22T07:33:39.898Z,9.93
2023-01-22T07:37:53.036Z,9.03
2023-01-22T07:42:04.645Z,6.80
2023-01-22T07:46:16.453Z,8.20
2023-01-22T07:50:30.920Z,7.43
2023-01-22T07:54:42.399Z,6.70
2023-01-22T07:58:53.988Z,6.10
2023-01-22T08:03:06.683Z,6.10
2023-01-22T08:07:19.243Z,6.57
2023-01-22T08:11:30.741Z,7.17
2023-01-22T08:15:42.662Z,6.20
2023-01-22T08:19:54.109Z,5.73
2023-01-22T08:24:08.025Z,6.10
2023-01-22T08:28:19.505Z,5.70
2023-01-22T08:32:31.365Z,5.53
2023-01-22T08:36:42.947Z,5.60
2023-01-22T08:40:54.429Z,5.80
2023-01-22T08:45:07.838Z,6.10
2023-01-22T08:49:21.683Z,5.43
2023-01-22T08:53:33.228Z,5.00
2023-01-22T08:57:44.658Z,5.93
2023-01-22T09:01:58.528Z,5.30
2023-01-22T09:06:10.996Z,6.00
2023-01-22T09:10:22.751Z,5.30
2023-01-22T09:14:34.414Z,5.87
2023-01-22T09:18:46.010Z,5.40
2023-01-22T09:22:57.560Z,5.20
2023-01-22T09:27:09.491Z,5.03
2023-01-22T09:31:21.114Z,5.10
2023-01-22T09:35:32.562Z,4.60
2023-01-22T09:39:44.107Z,4.80
2023-01-22T09:44:06.249Z,4.80
2023-01-22T09:48:18.559Z,4.90
2023-01-22T09:52:33.963Z,5.03
2023-01-22T09:56:49.952Z,4.47
2023-01-22T10:01:04.380Z,4.90
2023-01-22T10:05:37.421Z,4.20
2023-01-22T10:09:56.479Z,5.43
2023-01-22T10:14:12.579Z,4.37
2023-01-22T10:18:30.972Z,4.90
2023-01-22T10:22:42.454Z,5.07
2023-01-22T10:26:55.623Z,4.63
2023-01-22T10:31:21.969Z,4.47
2023-01-22T10:35:50.373Z,4.77
2023-01-22T10:40:01.802Z,4.47
2023-01-22T10:44:20.293Z,5.30
2023-01-22T10:48:33.185Z,6.40
2023-01-22T10:52:50.197Z,5.00
2023-01-22T10:57:16.038Z,5.53
2023-01-22T11:01:39.665Z,5.40
2023-01-22T11:05:57.735Z,5.03
2023-01-22T11:10:19.868Z,5.10
2023-01-22T11:14:37.249Z,4.83
2023-01-22T11:19:14.494Z,5.17
2023-01-22T11:23:58.990Z,5.80
2023-01-22T11:28:24.718Z,4.60
2023-01-22T11:32:55.005Z,5.27
2023-01-22T11:37:15.638Z,5.53
2023-01-22T11:41:55.365Z,5.33
2023-01-22T11:46:23.478Z,4.80
2023-01-22T11:50:34.939Z,5.03
2023-01-22T11:54:57.868Z,4.53
2023-01-22T11:59:27.518Z,4.60
2023-01-22T12:03:49.521Z,4.40
2023-01-22T12:08:17.310Z,4.10
2023-01-22T12:12:41.871Z,4.17
2023-01-22T12:17:19.810Z,3.93
2023-01-22T12:21:59.326Z,4.10
2023-01-22T12:26:20.570Z,4.30
2023-01-22T12:30:51.778Z,4.33
2023-01-22T12:35:17.077Z,4.13
2023-01-22T12:39:33.908Z,4.13
2023-01-22T12:43:51.738Z,4.60
2023-01-22T12:48:15.433Z,4.80
2023-01-22T12:52:37.618Z,4.10
2023-01-22T12:56:51.466Z,4.73
2023-01-22T13:01:09.009Z,5.47
2023-01-22T13:05:26.530Z,5.30
2023-01-22T13:09:38.126Z,5.03
2023-01-22T13:13:58.486Z,4.70
2023-01-22T13:18:25.804Z,5.20
2023-01-22T13:22:37.932Z,5.13
2023-01-22T13:27:01.441Z,5.00
2023-01-22T13:31:16.778Z,5.13
2023-01-22T13:35:28.237Z,5.13
2023-01-22T13:39:39.708Z,4.47
2023-01-22T13:43:51.212Z,5.67
2023-01-22T13:48:04.133Z,5.57
2023-01-22T13:52:18.834Z,5.47
2023-01-22T13:56:30.617Z,4.50
2023-01-22T14:00:52.397Z,4.70
2023-01-22T14:05:04.194Z,4.33
2023-01-22T14:09:37.561Z,4.23
2023-01-22T14:13:51.970Z,4.60
2023-01-22T14:18:08.669Z,4.43
2023-01-22T14:22:20.169Z,4.03
2023-01-22T14:26:31.707Z,3.97
2023-01-22T14:30:43.193Z,4.50
2023-01-22T14:34:54.655Z,4.43
2023-01-22T14:39:07.097Z,5.23
2023-01-22T14:43:19.023Z,4.30
2023-01-22T14:47:30.504Z,4.53
2023-01-22T14:51:41.902Z,4.60
2023-01-22T14:55:53.364Z,4.00
2023-01-22T15:00:06.432Z,4.73
2023-01-22T15:04:17.919Z,4.33
2023-01-22T15:08:29.411Z,4.67
2023-01-22T15:12:44.568Z,5.07
2023-01-22T15:16:56.270Z,4.23
2023-01-22T15:21:08.011Z,4.90
2023-01-22T15:25:19.671Z,5.97
2023-01-22T15:29:31.346Z,5.30
2023-01-22T15:33:42.777Z,5.80
2023-01-22T15:37:54.221Z,6.93
2023-01-22T15:42:05.740Z,5.90
2023-01-22T15:46:22.782Z,4.97
2023-01-22T15:50:34.327Z,5.90
2023-01-22T15:54:46.314Z,5.47
2023-01-22T15:58:58.707Z,5.30
2023-01-22T16:03:11.905Z,6.17
2023-01-22T16:07:23.450Z,5.30
2023-01-22T16:11:35.690Z,5.33
2023-01-22T16:16:00.102Z,5.67
2023-01-22T16:20:11.880Z,6.00
2023-01-22T16:24:23.346Z,6.27
2023-01-22T16:28:38.778Z,5.53
2023-01-22T16:32:53.344Z,6.00
2023-01-22T16:37:04.816Z,5.10
2023-01-22T16:41:26.297Z,5.70
2023-01-22T16:45:37.754Z,5.80
2023-01-22T16:49:49.231Z,6.10
2023-01-22T16:54:00.947Z,6.80
2023-01-22T16:58:12.390Z,5.37
2023-01-22T17:02:23.823Z,6.30
2023-01-22T17:06:41.313Z,6.30
2023-01-22T17:10:52.937Z,5.67
2023-01-22T17:15:05.287Z,5.63
2023-01-22T17:19:17.094Z,7.03
2023-01-22T17:23:28.669Z,6.27
2023-01-22T17:27:40.169Z,5.63
2023-01-22T17:31:52.350Z,7.03
2023-01-22T17:36:05.784Z,6.77
2023-01-22T17:40:17.428Z,6.60
2023-01-22T17:44:29.928Z,7.30
2023-01-22T17:48:41.678Z,6.97
2023-01-22T17:52:53.129Z,6.23
2023-01-22T17:57:05.173Z,6.47
2023-01-22T18:01:18.936Z,6.20
2023-01-22T18:05:32.789Z,6.53
2023-01-22T18:09:44.369Z,5.73
2023-01-22T18:13:57.904Z,6.77
2023-01-22T18:18:09.342Z,5.97
2023-01-22T18:22:21.203Z,6.17
2023-01-22T18:26:34.133Z,5.63
2023-01-22T18:30:46.704Z,4.93
2023-01-22T18:34:58.220Z,5.10
2023-01-22T18:39:14.790Z,5.33
2023-01-22T18:43:26.295Z,5.83
2023-01-22T18:47:38.493Z,5.17
2023-01-22T18:51:49.973Z,6.03
2023-01-22T18:56:03.528Z,5.73
2023-01-22T19:00:15.462Z,6.47
2023-01-22T19:04:28.644Z,6.20
2023-01-22T19:08:45.439Z,6.00
2023-01-22T19:12:57.050Z,7.00
2023-01-22T19:17:08.505Z,6.60
2023-01-22T19:21:21.552Z,7.63
2023-01-22T19:25:33.253Z,6.10
2023-01-22T19:29:46.689Z,7.13
2023-01-22T19:33:59.127Z,7.17
2023-01-22T19:38:10.560Z,6.27
2023-01-22T19:42:24.255Z,6.90
2023-01-22T19:46:37.909Z,6.37
2023-01-22T19:50:58.591Z,6.17
2023-01-22T19:55:10.116Z,7.07
2023-01-22T19:59:22.745Z,6.97
2023-01-22T20:03:34.175Z,5.87
2023-01-22T20:07:46.578Z,7.33
2023-01-22T20:11:59.277Z,7.00
2023-01-22T20:16:25.672Z,7.57
2023-01-22T20:20:37.193Z,7.23
2023-01-22T20:24:48.888Z,6.13
2023-01-22T20:29:01.208Z,5.80
2023-01-22T20:33:12.719Z,6.17
2023-01-22T20:37:24.764Z,6.90
2023-01-22T20:41:36.267Z,7.03
2023-01-22T20:46:02.002Z,7.20
2023-01-22T20:50:13.504Z,7.83
2023-01-22T20:54:24.943Z,8.87
2023-01-22T20:58:36.493Z,7.80
2023-01-22T21:02:50.564Z,9.00
2023-01-22T21:07:01.993Z,6.43
2023-01-22T21:11:13.970Z,6.73
2023-01-22T21:15:25.620Z,8.87
2023-01-22T21:19:37.140Z,8.30
2023-01-22T21:23:50.306Z,6.77
2023-01-22T21:28:01.874Z,6.67
2023-01-22T21:32:15.203Z,6.90
2023-01-22T21:36:26.772Z,6.30
2023-01-22T21:40:38.216Z,7.60
2023-01-22T21:45:08.438Z,7.93
2023-01-22T21:49:23.322Z,6.37
2023-01-22T21:53:34.819Z,6.57
2023-01-22T21:57:46.402Z,6.80
2023-01-22T22:01:58.270Z,6.70
2023-01-22T22:06:11.297Z,6.30
2023-01-22T22:10:22.764Z,5.70
2023-01-22T22:14:34.258Z,5.87
2023-01-22T22:18:45.773Z,7.07
2023-01-22T22:22:57.235Z,6.00
2023-01-22T22:27:08.658Z,6.50
